Time;durP1;ratioP1;P1;durP2;ratioP2;P2;SDS_P1;SDS_P2;PMS_P1;PMS_P2;Temp;Humidity;BMP_temperature;BMP_pressure;BME280_temperature;BME280_humidity;BME280_pressure;Samples;Min_cycle;Max_cycle;Signal;HPM_P1;HPM_P2
2023/09/03 00:00:30;;;;;;;6.00;5.50;;;;;;;14.64;100.00;99741.33;109688;1250;67893;-69
2023/09/03 00:02:56;;;;;;;6.20;5.70;;;;;;;14.73;100.00;99738.89;109585;1250;71556;-69
2023/09/03 00:05:23;;;;;;;5.60;5.20;;;;;;;14.83;100.00;99738.52;109615;1250;60415;-69
2023/09/03 00:07:50;;;;;;;5.90;5.50;;;;;;;14.88;100.00;99739.46;109658;1250;59607;-68
2023/09/03 00:10:17;;;;;;;5.40;4.90;;;;;;;14.88;100.00;99740.87;109671;1250;75419;-69
2023/09/03 00:12:43;;;;;;;5.60;5.10;;;;;;;14.91;100.00;99737.77;109590;1251;65357;-69
2023/09/03 00:15:10;;;;;;;6.80;4.90;;;;;;;14.92;100.00;99736.54;109612;1250;60267;-69
2023/09/03 00:17:36;;;;;;;5.50;5.10;;;;;;;14.90;100.00;99736.61;109631;1250;62307;-69
2023/09/03 00:20:03;;;;;;;6.70;6.20;;;;;;;14.87;100.00;99739.54;109683;1250;59778;-69
2023/09/03 00:22:30;;;;;;;6.80;6.20;;;;;;;14.84;100.00;99738.77;109694;1250;74009;-69
2023/09/03 00:24:56;;;;;;;7.10;6.50;;;;;;;14.84;100.00;99739.11;109645;1252;59860;-69
2023/09/03 00:27:23;;;;;;;7.30;6.70;;;;;;;14.87;100.00;99738.44;109648;1250;59758;-69
2023/09/03 00:29:49;;;;;;;6.90;6.30;;;;;;;14.92;100.00;99735.71;109640;1250;59762;-69
2023/09/03 00:32:16;;;;;;;8.00;7.30;;;;;;;14.95;100.00;99733.84;109702;1250;60133;-69
2023/09/03 00:34:42;;;;;;;6.60;6.00;;;;;;;14.97;100.00;99729.49;109636;1250;60400;-69
2023/09/03 00:37:09;;;;;;;8.50;6.10;;;;;;;14.97;100.00;99735.19;109662;1250;59768;-69
2023/09/03 00:39:36;;;;;;;6.90;6.30;;;;;;;14.97;100.00;99737.15;109562;1250;72490;-69
2023/09/03 00:42:03;;;;;;;9.50;6.20;;;;;;;14.96;100.00;99739.02;109587;1250;61787;-69
2023/09/03 00:44:29;;;;;;;12.40;6.50;;;;;;;14.97;100.00;99740.95;109639;1250;60140;-70
2023/09/03 00:46:56;;;;;;;7.70;6.90;;;;;;;14.96;100.00;99742.10;109659;1251;59878;-69
2023/09/03 00:49:23;;;;;;;7.60;6.30;;;;;;;14.98;100.00;99737.95;109589;1253;66412;-70
2023/09/03 00:51:50;;;;;;;7.30;6.60;;;;;;;15.03;100.00;99739.52;109649;1250;72756;-69
2023/09/03 00:54:17;;;;;;;8.40;7.60;;;;;;;15.04;100.00;99740.42;109531;1250;62092;-69
2023/09/03 00:56:44;;;;;;;7.40;6.70;;;;;;;15.06;100.00;99740.34;109487;1250;59793;-69
2023/09/03 00:59:11;;;;;;;7.10;6.50;;;;;;;15.12;100.00;99740.44;109504;1252;75244;-70
2023/09/03 01:01:38;;;;;;;8.10;7.00;;;;;;;15.18;100.00;99739.45;109579;1251;68207;-69
2023/09/03 01:04:05;;;;;;;7.50;6.60;;;;;;;15.24;100.00;99741.23;109554;1250;72788;-70
2023/09/03 01:06:31;;;;;;;6.50;5.90;;;;;;;15.24;100.00;99737.98;109669;1250;60706;-69
2023/09/03 01:08:58;;;;;;;7.20;6.60;;;;;;;15.18;100.00;99732.77;109663;1250;59709;-69
2023/09/03 01:12:23;;;;;;;6.80;6.20;;;;;;;15.12;100.00;99724.84;109663;1250;60374;-69
2023/09/03 01:14:50;;;;;;;8.60;6.30;;;;;;;15.17;100.00;99724.98;109058;1250;66580;-69
2023/09/03 01:17:46;;;;;;;7.00;6.40;;;;;;;15.19;100.00;99722.69;109676;1250;71272;-70
2023/09/03 01:20:18;;;;;;;8.10;6.90;;;;;;;15.22;100.00;99719.78;109662;1250;59742;-69
2023/09/03 01:22:44;;;;;;;6.90;6.30;;;;;;;15.18;100.00;99714.10;109551;1250;60150;-69
2023/09/03 01:25:17;;;;;;;6.30;5.70;;;;;;;15.16;100.00;99718.27;109685;1250;59840;-69
2023/09/03 01:27:51;;;;;;;6.50;5.90;;;;;;;15.17;100.00;99720.39;109597;1250;67845;-69
2023/09/03 01:30:18;;;;;;;8.50;6.00;;;;;;;15.19;100.00;99725.38;109655;1252;71357;-70
2023/09/03 01:32:46;;;;;;;8.00;6.40;;;;;;;15.19;100.00;99719.48;109533;1251;62456;-69
2023/09/03 01:35:12;;;;;;;6.90;6.40;;;;;;;15.19;100.00;99717.91;109516;1251;59727;-69
2023/09/03 01:37:39;;;;;;;7.30;6.70;;;;;;;15.14;100.00;99718.55;109617;1250;73899;-70
2023/09/03 01:40:06;;;;;;;8.70;6.00;;;;;;;15.10;100.00;99719.30;109397;1250;68075;-69
2023/09/03 01:42:33;;;;;;;7.80;7.10;;;;;;;15.08;100.00;99717.92;109660;1250;71214;-69
2023/09/03 01:45:00;;;;;;;7.70;6.90;;;;;;;15.08;100.00;99717.52;109556;1250;59796;-70
2023/09/03 01:47:45;;;;;;;7.50;6.80;;;;;;;15.09;100.00;99715.10;109504;1250;60131;-70
2023/09/03 01:50:27;;;;;;;7.80;6.90;;;;;;;15.12;100.00;99715.20;109712;1250;75324;-70
2023/09/03 01:53:14;;;;;;;7.50;6.80;;;;;;;15.13;100.00;99719.79;109605;1250;67801;-69
2023/09/03 01:55:42;;;;;;;8.90;7.80;;;;;;;15.12;100.00;99713.14;109536;1250;71376;-69
2023/09/03 01:58:10;;;;;;;10.00;9.00;;;;;;;15.11;100.00;99713.80;109524;1250;61748;-69
2023/09/03 02:00:37;;;;;;;9.70;7.80;;;;;;;15.10;100.00;99716.79;109497;1250;59695;-70
2023/09/03 02:03:03;;;;;;;7.80;7.10;;;;;;;15.10;100.00;99719.14;109538;1250;74354;-67
2023/09/03 02:05:30;;;;;;;7.30;6.60;;;;;;;15.06;100.00;99715.64;109659;1250;66618;-68
2023/09/03 02:07:57;;;;;;;7.20;6.60;;;;;;;15.04;100.00;99720.02;109524;1250;73522;-68
2023/09/03 02:10:23;;;;;;;7.70;6.90;;;;;;;15.01;100.00;99716.26;109664;1250;59789;-68
2023/09/03 02:12:50;;;;;;;8.60;7.30;;;;;;;14.98;100.00;99718.46;109646;1250;60014;-68
2023/09/03 02:15:16;;;;;;;8.80;7.90;;;;;;;14.96;100.00;99721.45;109695;1250;60340;-69
2023/09/03 02:17:43;;;;;;;10.90;9.70;;;;;;;14.95;100.00;99722.05;109702;1249;67807;-69
2023/09/03 02:20:10;;;;;;;11.70;9.60;;;;;;;14.98;100.00;99721.14;109561;1250;72537;-68
2023/09/03 02:22:36;;;;;;;12.00;10.10;;;;;;;15.00;100.00;99724.79;109608;1250;60530;-68
2023/09/03 02:25:03;;;;;;;8.60;7.70;;;;;;;15.02;100.00;99721.38;109551;1250;59929;-68
2023/09/03 02:27:30;;;;;;;9.30;8.40;;;;;;;15.01;100.00;99719.55;109679;1250;75441;-67
2023/09/03 02:29:56;;;;;;;7.80;7.00;;;;;;;14.94;100.00;99720.98;109567;1250;66608;-68
2023/09/03 02:32:25;;;;;;;9.20;7.60;;;;;;;14.82;100.00;99718.27;109474;1250;71390;-68
2023/09/03 02:34:52;;;;;;;8.10;7.20;;;;;;;14.76;100.00;99717.97;109625;1250;60588;-68
2023/09/03 02:37:18;;;;;;;7.40;6.70;;;;;;;14.73;100.00;99724.58;109664;1250;59783;-68
2023/09/03 02:39:45;;;;;;;7.30;6.60;;;;;;;14.69;100.00;99727.95;109643;1250;75264;-68
2023/09/03 02:42:11;;;;;;;10.10;7.50;;;;;;;14.62;100.00;99729.20;109710;1250;67690;-69
2023/09/03 02:44:38;;;;;;;8.50;7.20;;;;;;;14.62;100.00;99728.77;109629;1250;72648;-69
2023/09/03 02:47:04;;;;;;;7.80;6.80;;;;;;;14.64;100.00;99727.44;109554;1250;59801;-69
2023/09/03 02:49:31;;;;;;;7.60;6.90;;;;;;;14.65;100.00;99721.39;109614;1250;60089;-69
2023/09/03 02:51:58;;;;;;;8.50;7.70;;;;;;;14.59;100.00;99717.63;109602;1250;75243;-69
2023/09/03 02:54:24;;;;;;;9.70;8.70;;;;;;;14.47;100.00;99717.34;109532;1250;66531;-69
2023/09/03 02:56:51;;;;;;;11.50;9.40;;;;;;;14.37;100.00;99716.73;109577;1250;71557;-69
2023/09/03 02:59:18;;;;;;;10.30;9.30;;;;;;;14.31;100.00;99719.93;109662;1250;61897;-69
2023/09/03 03:01:44;;;;;;;10.90;9.80;;;;;;;14.31;100.00;99720.13;109670;1251;59697;-69
2023/09/03 03:04:12;;;;;;;10.10;9.10;;;;;;;14.30;100.00;99718.43;109566;1250;75483;-69
2023/09/03 03:06:38;;;;;;;10.30;9.20;;;;;;;14.31;100.00;99721.22;109554;1250;67971;-69
2023/09/03 03:09:05;;;;;;;11.00;9.90;;;;;;;14.33;100.00;99724.70;109607;1250;72939;-69
2023/09/03 03:11:32;;;;;;;11.00;9.80;;;;;;;14.33;100.00;99726.83;109492;1250;60772;-70
2023/09/03 03:14:00;;;;;;;9.90;8.90;;;;;;;14.36;100.00;99730.18;109706;1250;59957;-69
2023/09/03 03:16:30;;;;;;;9.70;8.80;;;;;;;14.40;100.00;99729.02;109516;1250;73019;-69
2023/09/03 03:18:57;;;;;;;8.90;8.20;;;;;;;14.44;100.00;99731.58;109459;1250;67590;-69
2023/09/03 03:21:27;;;;;;;9.50;8.40;;;;;;;14.49;100.00;99729.92;109573;1250;72663;-69
2023/09/03 03:23:59;;;;;;;9.10;8.30;;;;;;;14.55;100.00;99732.48;109482;1250;61777;-69
2023/09/03 03:26:31;;;;;;;13.70;10.20;;;;;;;14.57;100.00;99733.76;109654;1250;60301;-69
2023/09/03 03:28:57;;;;;;;9.90;9.00;;;;;;;14.57;100.00;99733.05;109563;1250;75257;-69
2023/09/03 03:31:24;;;;;;;8.30;7.60;;;;;;;14.56;100.00;99726.98;109536;1250;66849;-69
2023/09/03 03:33:52;;;;;;;8.50;7.60;;;;;;;14.54;100.00;99722.80;109535;1250;71182;-69
2023/09/03 03:36:21;;;;;;;9.80;8.90;;;;;;;14.51;100.00;99721.70;109575;1250;60043;-70
2023/09/03 03:38:48;;;;;;;9.20;8.40;;;;;;;14.49;100.00;99719.30;109622;1252;59756;-70
2023/09/03 03:41:17;;;;;;;8.30;7.60;;;;;;;14.50;100.00;99719.88;109493;1250;75251;-70
2023/09/03 03:43:45;;;;;;;9.40;8.60;;;;;;;14.52;100.00;99721.23;109559;1250;67732;-69
2023/09/03 03:46:14;;;;;;;9.20;8.00;;;;;;;14.54;100.00;99722.69;109541;1250;71231;-70
2023/09/03 03:48:41;;;;;;;10.60;8.80;;;;;;;14.57;100.00;99723.45;109533;1250;61922;-70
2023/09/03 03:51:08;;;;;;;10.30;9.40;;;;;;;14.59;100.00;99725.17;109575;1251;60169;-69
2023/09/03 03:53:35;;;;;;;10.10;8.90;;;;;;;14.61;100.00;99720.25;109607;1250;73840;-69
2023/09/03 03:56:07;;;;;;;9.20;8.40;;;;;;;14.63;100.00;99723.43;109541;1250;68010;-69
2023/09/03 03:58:38;;;;;;;9.50;8.60;;;;;;;14.63;100.00;99724.77;109532;1250;71399;-69
2023/09/03 04:01:11;;;;;;;10.30;9.30;;;;;;;14.64;100.00;99729.55;109631;1250;60539;-69
2023/09/03 04:03:38;;;;;;;9.50;8.70;;;;;;;14.66;100.00;99725.20;109677;1251;60004;-69
2023/09/03 04:06:04;;;;;;;9.40;8.60;;;;;;;14.68;100.00;99722.89;109638;1250;75222;-69
2023/09/03 04:08:32;;;;;;;8.80;8.00;;;;;;;14.72;100.00;99721.59;109641;1250;68347;-69
2023/09/03 04:11:03;;;;;;;8.60;7.80;;;;;;;14.75;100.00;99723.16;109628;1250;72782;-69
2023/09/03 04:13:29;;;;;;;7.90;7.20;;;;;;;14.81;100.00;99714.17;109636;1250;59751;-69
2023/09/03 04:15:57;;;;;;;8.70;7.50;;;;;;;14.86;100.00;99713.15;109603;1250;60369;-69
2023/09/03 04:18:24;;;;;;;8.20;7.50;;;;;;;14.93;100.00;99714.17;109504;1250;74097;-69
2023/09/03 04:20:55;;;;;;;8.00;7.30;;;;;;;15.02;100.00;99713.17;109544;1252;66542;-69
2023/09/03 04:23:24;;;;;;;8.60;7.90;;;;;;;15.14;100.00;99709.45;109526;1250;71278;-69
2023/09/03 04:25:54;;;;;;;10.10;7.30;;;;;;;15.26;100.00;99706.70;109537;1250;61702;-70
2023/09/03 04:28:20;;;;;;;6.60;6.10;;;;;;;15.36;100.00;99707.08;109532;1250;60267;-69
2023/09/03 04:30:55;;;;;;;6.70;6.20;;;;;;;15.47;100.00;99710.91;109561;1251;74159;-69
2023/09/03 04:33:23;;;;;;;6.40;5.90;;;;;;;15.56;100.00;99712.30;109631;1250;68503;-70
2023/09/03 04:36:00;;;;;;;5.40;5.00;;;;;;;15.61;100.00;99710.07;109612;1250;72666;-69
2023/09/03 04:38:29;;;;;;;7.00;5.90;;;;;;;15.60;100.00;99708.03;109619;1250;59990;-69
2023/09/03 04:40:56;;;;;;;5.00;4.70;;;;;;;15.61;100.00;99708.79;109665;1251;60251;-70
2023/09/03 04:43:24;;;;;;;6.20;5.70;;;;;;;15.62;100.00;99707.95;109572;1250;74106;-69
2023/09/03 04:45:52;;;;;;;6.40;5.80;;;;;;;15.62;100.00;99711.06;109732;1250;67623;-70
2023/09/03 04:48:20;;;;;;;6.80;6.10;;;;;;;15.65;100.00;99708.23;109474;1250;71233;-70
2023/09/03 04:50:48;;;;;;;5.80;5.30;;;;;;;15.66;100.00;99704.87;109470;1250;60611;-70
2023/09/03 04:53:15;;;;;;;6.80;6.20;;;;;;;15.70;100.00;99701.14;109666;1250;59886;-70
2023/09/03 04:55:43;;;;;;;6.50;5.80;;;;;;;15.79;100.00;99699.61;109522;1255;75219;-70
2023/09/03 04:58:10;;;;;;;7.70;7.10;;;;;;;15.97;100.00;99706.02;109708;1253;66193;-70
2023/09/03 05:00:37;;;;;;;7.30;6.60;;;;;;;16.09;100.00;99700.66;109635;1250;72592;-69
2023/09/03 05:03:06;;;;;;;7.40;6.50;;;;;;;16.22;100.00;99696.45;109527;1253;60365;-70
2023/09/03 05:05:42;;;;;;;7.60;7.00;;;;;;;16.48;100.00;99696.88;109605;1250;59641;-69
2023/09/03 05:08:09;;;;;;;8.10;7.40;;;;;;;16.89;100.00;99699.70;109619;1250;74457;-70
2023/09/03 05:10:38;;;;;;;7.50;6.90;;;;;;;17.11;100.00;99696.69;109657;1250;67279;-70
2023/09/03 05:13:05;;;;;;;6.80;6.30;;;;;;;17.25;100.00;99691.85;109631;1251;72452;-68
2023/09/03 05:15:32;;;;;;;7.90;6.40;;;;;;;17.43;100.00;99684.17;109381;1250;185603;-68
2023/09/03 05:18:01;;;;;;;7.90;7.30;;;;;;;17.62;100.00;99685.04;109551;1250;59709;-68
2023/09/03 05:20:29;;;;;;;7.80;7.20;;;;;;;17.87;100.00;99684.18;109501;1249;74599;-68
2023/09/03 05:22:56;;;;;;;7.30;6.70;;;;;;;18.22;100.00;99686.23;109617;1250;67584;-68
2023/09/03 05:25:22;;;;;;;6.80;6.20;;;;;;;18.66;100.00;99678.10;109522;1250;72481;-68
2023/09/03 05:27:49;;;;;;;7.20;6.60;;;;;;;19.16;100.00;99672.36;109490;1250;61752;-68
2023/09/03 05:30:16;;;;;;;6.50;5.90;;;;;;;19.64;100.00;99665.15;109470;1250;59951;-70
2023/09/03 05:32:42;;;;;;;5.40;5.00;;;;;;;20.14;100.00;99659.81;109617;1250;74225;-68
2023/09/03 05:35:09;;;;;;;5.90;5.50;;;;;;;20.61;100.00;99653.23;109575;1250;67871;-67
2023/09/03 05:37:36;;;;;;;5.90;5.40;;;;;;;20.93;100.00;99643.77;109358;1252;71208;-67
2023/09/03 05:40:04;;;;;;;7.20;6.60;;;;;;;21.23;100.00;99632.34;109583;1250;60513;-71
2023/09/03 05:42:32;;;;;;;7.10;6.50;;;;;;;21.55;100.00;99628.25;109536;1252;60161;-71
2023/09/03 05:44:59;;;;;;;6.40;5.90;;;;;;;21.94;100.00;99622.77;109506;1251;73847;-71
2023/09/03 05:47:26;;;;;;;6.70;6.20;;;;;;;22.32;100.00;99615.61;109571;1250;66424;-68
2023/09/03 05:49:57;;;;;;;5.90;5.50;;;;;;;22.57;100.00;99608.20;109545;1251;72500;-70
2023/09/03 05:52:24;;;;;;;6.10;5.70;;;;;;;22.88;100.00;99603.66;109507;1250;59831;-74
2023/09/03 05:54:51;;;;;;;7.20;6.60;;;;;;;23.14;100.00;99602.42;109612;1250;59847;-70
2023/09/03 05:57:18;;;;;;;7.70;7.00;;;;;;;23.17;100.00;99598.25;109651;1251;76015;-70
2023/09/03 05:59:49;;;;;;;6.70;6.10;;;;;;;23.23;100.00;99596.71;109612;1250;68081;-68
2023/09/03 06:02:18;;;;;;;6.80;6.10;;;;;;;23.31;100.00;99599.66;109472;1250;72710;-73
2023/09/03 06:04:45;;;;;;;6.70;6.20;;;;;;;23.48;100.00;99597.69;109561;1251;60044;-67
2023/09/03 06:07:12;;;;;;;6.50;5.90;;;;;;;23.62;100.00;99600.91;109481;1251;59822;-69
2023/09/03 06:09:39;;;;;;;7.20;6.60;;;;;;;23.80;100.00;99600.92;109666;1250;74047;-70
2023/09/03 06:12:05;;;;;;;6.80;6.20;;;;;;;24.08;100.00;99595.46;109669;1250;67302;-71
2023/09/03 06:14:32;;;;;;;6.60;6.00;;;;;;;24.44;100.00;99593.25;109591;1254;71452;-70
2023/09/03 06:16:59;;;;;;;6.20;5.80;;;;;;;24.79;100.00;99584.32;109499;1250;60055;-71
2023/09/03 06:19:26;;;;;;;7.20;6.60;;;;;;;25.07;100.00;99579.16;109520;1255;60049;-71
2023/09/03 06:21:53;;;;;;;7.20;6.50;;;;;;;25.48;100.00;99578.70;109593;1251;75511;-66
2023/09/03 06:24:19;;;;;;;7.70;7.00;;;;;;;25.87;100.00;99576.07;109533;1251;59916;-71
2023/09/03 06:26:46;;;;;;;9.40;8.70;;;;;;;26.13;100.00;99575.19;109643;1251;60105;-69
2023/09/03 06:29:12;;;;;;;9.00;8.10;;;;;;;26.29;100.00;99573.91;109467;1251;60427;-68
2023/09/03 06:31:39;;;;;;;9.90;8.70;;;;;;;26.55;100.00;99569.85;109503;1251;59930;-68
2023/09/03 06:34:06;;;;;;;9.30;8.30;;;;;;;26.79;100.00;99572.27;109516;1251;74500;-69
2023/09/03 06:36:32;;;;;;;8.90;8.00;;;;;;;26.98;100.00;99570.04;109493;1255;59813;-74
2023/09/03 06:38:59;;;;;;;9.90;8.20;;;;;;;27.09;100.00;99572.64;109461;1250;72418;-67
2023/09/03 06:41:26;;;;;;;9.80;8.90;;;;;;;27.22;100.00;99572.67;109474;1250;60421;-67
2023/09/03 06:43:53;;;;;;;8.70;7.90;;;;;;;27.32;100.00;99573.58;109615;1250;60330;-71
2023/09/03 06:46:19;;;;;;;8.50;7.80;;;;;;;27.44;100.00;99573.45;109698;1250;74784;-68
2023/09/03 06:48:46;;;;;;;7.60;7.00;;;;;;;27.66;100.00;99571.10;109645;1251;67764;-67
2023/09/03 06:51:13;;;;;;;7.30;6.60;;;;;;;27.98;100.00;99567.62;109624;1250;71608;-69
2023/09/03 06:53:39;;;;;;;7.10;6.60;;;;;;;28.26;100.00;99565.58;109621;1251;61836;-74
2023/09/03 06:56:06;;;;;;;8.50;6.80;;;;;;;28.53;100.00;99565.25;109669;1251;59728;-67
2023/09/03 06:58:33;;;;;;;7.70;7.00;;;;;;;28.68;99.72;99564.07;109627;1250;74215;-69
2023/09/03 07:01:02;;;;;;;6.90;6.40;;;;;;;28.78;98.68;99560.50;109659;1250;66630;-71
2023/09/03 07:03:28;;;;;;;7.40;6.70;;;;;;;28.89;98.33;99561.48;109633;1254;71599;-72
2023/09/03 07:05:55;;;;;;;8.00;7.20;;;;;;;29.06;96.49;99564.00;109580;1251;60126;-72
2023/09/03 07:08:22;;;;;;;7.60;6.90;;;;;;;29.27;96.11;99564.91;109678;1251;60260;-70
2023/09/03 07:10:49;;;;;;;8.20;7.40;;;;;;;29.53;92.51;99567.05;109644;1251;75227;-72
2023/09/03 07:13:15;;;;;;;8.50;7.50;;;;;;;29.69;90.58;99570.40;109575;1250;66635;-71
2023/09/03 07:15:43;;;;;;;7.80;7.00;;;;;;;29.82;88.80;99572.45;109510;1251;71717;-73
2023/09/03 07:18:10;;;;;;;8.50;7.50;;;;;;;29.97;88.86;99572.98;109524;1251;60123;-72
2023/09/03 07:20:37;;;;;;;7.40;6.70;;;;;;;30.12;88.15;99577.04;109646;1251;60031;-70
2023/09/03 07:23:03;;;;;;;9.00;8.20;;;;;;;30.28;87.41;99582.43;109583;1251;75364;-72
2023/09/03 07:25:31;;;;;;;9.20;8.40;;;;;;;30.50;84.33;99584.70;109624;1251;67878;-73
2023/09/03 07:27:58;;;;;;;9.50;8.60;;;;;;;30.68;82.86;99591.81;109569;1250;72585;-71
2023/09/03 07:30:24;;;;;;;9.60;8.30;;;;;;;30.84;79.92;99592.88;109577;1254;60297;-72
2023/09/03 07:32:51;;;;;;;8.70;8.00;;;;;;;30.88;78.06;99596.00;109578;1250;60250;-71
2023/09/03 07:35:18;;;;;;;8.70;7.80;;;;;;;30.84;76.77;99599.74;109369;1251;73708;-72
2023/09/03 07:37:46;;;;;;;8.70;7.80;;;;;;;30.68;75.81;99599.67;109394;1251;66729;-61
2023/09/03 07:40:12;;;;;;;10.30;8.10;;;;;;;30.21;76.24;99603.27;109530;1250;71222;-75
2023/09/03 07:42:39;;;;;;;8.40;7.70;;;;;;;29.68;78.24;99603.33;109552;1251;60576;-73
2023/09/03 07:45:07;;;;;;;7.10;6.50;;;;;;;29.29;79.08;99599.46;109566;1251;60183;-73
2023/09/03 07:47:33;;;;;;;6.80;6.30;;;;;;;28.87;80.79;99594.52;109455;1250;74249;-71
2023/09/03 07:50:01;;;;;;;5.60;5.20;;;;;;;28.65;84.72;99590.16;109621;1251;67690;-71
2023/09/03 07:52:28;;;;;;;5.70;5.20;;;;;;;28.90;86.66;99588.08;109565;1251;71331;-75
2023/09/03 07:54:54;;;;;;;6.50;5.90;;;;;;;29.33;85.61;99593.34;109522;1251;60729;-75
2023/09/03 07:57:21;;;;;;;7.00;5.30;;;;;;;29.80;83.63;99595.95;109666;1250;59834;-69
2023/09/03 07:59:47;;;;;;;4.90;4.50;;;;;;;30.14;80.47;99595.73;109602;1251;59756;-75
2023/09/03 08:02:14;;;;;;;5.10;4.60;;;;;;;30.21;76.91;99599.20;109669;1251;67880;-77
2023/09/03 08:04:42;;;;;;;5.40;5.00;;;;;;;30.32;75.10;99606.74;109604;1250;59898;-78
2023/09/03 08:07:08;;;;;;;4.80;4.40;;;;;;;30.50;73.54;99605.66;109599;1251;60318;-72
2023/09/03 08:09:36;;;;;;;4.60;4.10;;;;;;;30.77;74.96;99604.42;109619;1251;60173;-70
2023/09/03 08:12:02;;;;;;;6.10;4.60;;;;;;;31.19;73.88;99601.52;109676;1251;60239;-68
2023/09/03 08:14:29;;;;;;;4.50;4.10;;;;;;;31.57;70.26;99600.33;109668;1251;66695;-71
2023/09/03 08:16:56;;;;;;;4.50;4.10;;;;;;;31.81;68.68;99602.16;109475;1251;72856;-70
2023/09/03 08:19:22;;;;;;;4.80;4.40;;;;;;;31.92;67.57;99601.15;109548;1251;59682;-73
2023/09/03 08:21:49;;;;;;;4.70;4.10;;;;;;;31.96;66.51;99601.69;109613;1250;61386;-72
2023/09/03 08:24:16;;;;;;;4.40;3.90;;;;;;;31.89;64.74;99597.05;109580;1251;75606;-71
2023/09/03 08:26:42;;;;;;;4.50;4.10;;;;;;;31.59;63.35;99594.36;109634;1251;67807;-71
2023/09/03 08:29:09;;;;;;;5.30;4.40;;;;;;;31.14;63.87;99595.57;109566;1251;72728;-70
2023/09/03 08:31:36;;;;;;;4.10;3.80;;;;;;;30.96;62.99;99593.58;109630;1251;59739;-70
2023/09/03 08:34:03;;;;;;;4.80;4.40;;;;;;;30.53;62.11;99595.34;109687;1250;59729;-68
2023/09/03 08:36:29;;;;;;;4.60;4.20;;;;;;;30.02;63.80;99598.04;109652;1251;75559;-70
2023/09/03 08:38:56;;;;;;;4.20;3.80;;;;;;;29.48;64.87;99599.97;109587;1251;66775;-72
2023/09/03 08:41:23;;;;;;;4.10;3.70;;;;;;;28.92;67.81;99595.18;109681;1251;71311;-73
2023/09/03 08:43:53;;;;;;;5.80;3.80;;;;;;;28.49;69.52;99594.78;109521;1251;60624;-71
2023/09/03 08:46:20;;;;;;;4.90;4.50;;;;;;;28.03;71.52;99596.70;109553;1251;59786;-69
2023/09/03 08:48:47;;;;;;;7.30;5.00;;;;;;;27.56;74.09;99591.50;109649;1251;75473;-72
2023/09/03 08:51:17;;;;;;;6.00;5.40;;;;;;;27.12;77.52;99587.33;109613;1251;69178;-72
2023/09/03 08:53:44;;;;;;;7.10;4.80;;;;;;;26.70;80.49;99585.41;109549;1251;71787;-70
2023/09/03 08:56:11;;;;;;;5.40;4.80;;;;;;;26.28;83.61;99589.02;109489;1251;59812;-70
2023/09/03 08:58:38;;;;;;;8.30;4.90;;;;;;;25.84;86.12;99587.66;109717;1250;60314;-71
2023/09/03 09:01:05;;;;;;;7.10;5.20;;;;;;;25.48;90.22;99587.27;109637;1251;75810;-61
2023/09/03 09:03:32;;;;;;;10.00;4.90;;;;;;;25.16;92.85;99586.56;109563;1251;67962;-60
2023/09/03 09:05:59;;;;;;;5.80;5.20;;;;;;;24.91;95.47;99586.40;109571;1251;74305;-67
2023/09/03 09:08:25;;;;;;;6.80;5.30;;;;;;;24.70;95.30;99582.38;109557;1251;60201;-62
2023/09/03 09:10:52;;;;;;;5.70;5.20;;;;;;;24.53;96.79;99578.70;109450;1250;60146;-70
2023/09/03 09:13:21;;;;;;;5.60;5.10;;;;;;;24.57;97.29;99575.70;109538;1250;75486;-71
2023/09/03 09:15:49;;;;;;;6.30;4.40;;;;;;;25.06;97.60;99569.13;109548;1250;67842;-71
2023/09/03 09:18:15;;;;;;;4.60;4.20;;;;;;;25.64;95.69;99563.96;109639;1251;71850;-71
2023/09/03 09:20:42;;;;;;;4.10;3.60;;;;;;;25.97;93.57;99564.27;109619;1251;60513;-70
2023/09/03 09:23:08;;;;;;;4.10;3.70;;;;;;;26.08;91.07;99565.55;109597;1251;60139;-70
2023/09/03 09:25:35;;;;;;;4.10;3.70;;;;;;;26.04;85.63;99566.80;109544;1251;74467;-70
2023/09/03 09:28:12;;;;;;;4.90;3.90;;;;;;;25.78;80.21;99562.63;109619;1250;68781;-71
2023/09/03 09:30:55;;;;;;;5.80;4.10;;;;;;;25.40;80.48;99557.70;109617;1250;71655;-69
2023/09/03 09:33:22;;;;;;;4.60;4.10;;;;;;;25.03;83.27;99556.92;109587;1250;60716;-68
2023/09/03 09:35:50;;;;;;;3.90;3.30;;;;;;;24.80;87.78;99560.45;109605;1251;59674;-68
2023/09/03 09:38:17;;;;;;;4.70;3.50;;;;;;;24.58;90.61;99565.70;109562;1250;74282;-69
2023/09/03 09:40:43;;;;;;;2.90;2.60;;;;;;;24.40;91.81;99560.96;109647;1251;66730;-69
2023/09/03 09:43:10;;;;;;;3.20;2.20;;;;;;;24.24;92.11;99559.51;109620;1251;72742;-70
2023/09/03 09:45:50;;;;;;;3.20;2.50;;;;;;;24.05;91.13;99557.55;109563;1251;60114;-71
2023/09/03 09:48:17;;;;;;;4.50;2.40;;;;;;;23.86;90.42;99558.47;109534;1250;59754;-68
2023/09/03 09:50:45;;;;;;;3.90;2.70;;;;;;;23.67;90.19;99565.85;109543;1250;73984;-67
2023/09/03 09:53:27;;;;;;;3.20;2.50;;;;;;;23.51;93.15;99565.25;109524;1251;66412;-67
2023/09/03 09:56:00;;;;;;;3.90;2.30;;;;;;;23.42;95.39;99559.16;109620;1250;72565;-68
2023/09/03 09:58:37;;;;;;;4.40;2.50;;;;;;;23.39;96.06;99560.21;109633;1250;61261;-70
2023/09/03 10:01:04;;;;;;;3.10;2.50;;;;;;;23.33;97.19;99557.51;109650;1251;60030;-70
2023/09/03 10:03:44;;;;;;;2.70;2.20;;;;;;;23.32;99.31;99554.84;109558;1250;74039;-70
2023/09/03 10:06:15;;;;;;;5.80;2.20;;;;;;;23.34;100.00;99555.12;109611;1250;67645;-69
2023/09/03 10:08:42;;;;;;;2.30;2.10;;;;;;;23.34;100.00;99554.52;109636;1250;72749;-70
2023/09/03 10:11:09;;;;;;;2.00;1.90;;;;;;;23.26;100.00;99545.95;109653;1250;60619;-69
2023/09/03 10:13:39;;;;;;;3.80;2.40;;;;;;;23.13;100.00;99544.57;109665;1250;60028;-70
2023/09/03 10:16:09;;;;;;;4.90;2.40;;;;;;;23.03;100.00;99552.45;109680;1250;75210;-70
2023/09/03 10:18:46;;;;;;;2.70;2.10;;;;;;;22.89;100.00;99556.52;109672;1250;68085;-70
2023/09/03 10:21:14;;;;;;;2.80;2.50;;;;;;;22.76;100.00;99559.75;109614;1250;72443;-70
2023/09/03 10:23:47;;;;;;;3.00;2.40;;;;;;;22.64;100.00;99559.15;109565;1250;59765;-70
2023/09/03 10:26:13;;;;;;;5.00;3.00;;;;;;;22.48;100.00;99559.52;109694;1250;59671;-70
2023/09/03 10:28:41;;;;;;;3.30;3.00;;;;;;;22.36;100.00;99564.90;109688;1250;75510;-71
2023/09/03 10:31:08;;;;;;;3.50;2.50;;;;;;;22.26;100.00;99567.52;109561;1250;68188;-69
2023/09/03 10:33:35;;;;;;;3.50;2.80;;;;;;;22.10;100.00;99575.59;109537;1251;71185;-70
2023/09/03 10:36:17;;;;;;;4.30;3.60;;;;;;;21.90;100.00;99582.33;109543;1250;60170;-72
2023/09/03 10:38:44;;;;;;;6.90;3.60;;;;;;;21.60;100.00;99593.60;109476;1250;60164;-71
2023/09/03 10:41:18;;;;;;;6.00;3.20;;;;;;;21.25;100.00;99594.14;109529;1250;75201;-68
2023/09/03 10:43:57;;;;;;;5.20;3.50;;;;;;;20.85;100.00;99589.66;109591;1250;66485;-71
2023/09/03 10:46:25;;;;;;;3.60;3.30;;;;;;;20.46;100.00;99587.96;109446;1250;72624;-69
2023/09/03 10:48:53;;;;;;;5.30;3.30;;;;;;;20.11;100.00;99594.38;109604;1250;60518;-69
2023/09/03 10:51:40;;;;;;;4.20;3.10;;;;;;;19.94;100.00;99599.70;109508;1250;59648;-68
2023/09/03 10:54:24;;;;;;;3.50;3.10;;;;;;;19.78;100.00;99594.45;109464;1250;75317;-69
2023/09/03 10:57:06;;;;;;;3.80;3.40;;;;;;;19.52;100.00;99596.59;109438;1250;66528;-68
2023/09/03 10:59:58;;;;;;;3.80;3.50;;;;;;;19.31;100.00;99593.10;109486;1250;72508;-69
2023/09/03 11:02:28;;;;;;;3.50;3.20;;;;;;;19.07;100.00;99596.41;109453;1251;59866;-66
2023/09/03 11:05:13;;;;;;;4.80;3.50;;;;;;;18.90;100.00;99592.95;109490;1251;59704;-68
2023/09/03 11:07:43;;;;;;;3.50;3.20;;;;;;;18.77;100.00;99594.80;109650;1250;74509;-65
2023/09/03 11:10:27;;;;;;;4.50;3.00;;;;;;;18.72;100.00;99593.38;109597;1250;66558;-68
2023/09/03 11:12:54;;;;;;;3.60;2.80;;;;;;;18.66;100.00;99585.11;109590;1250;71383;-65
2023/09/03 11:15:21;;;;;;;2.80;2.60;;;;;;;18.61;100.00;99582.97;109665;1251;60187;-65
2023/09/03 11:17:54;;;;;;;3.10;2.80;;;;;;;18.56;100.00;99577.45;109637;1250;60274;-66
2023/09/03 11:20:34;;;;;;;2.40;2.20;;;;;;;18.51;100.00;99576.13;109623;1250;74155;-67
2023/09/03 11:23:17;;;;;;;3.10;2.80;;;;;;;18.43;100.00;99575.44;109624;1250;66745;-65
2023/09/03 11:25:44;;;;;;;5.80;2.80;;;;;;;18.39;100.00;99579.24;109611;1250;72544;-67